sensor_id;sensor_type;location;lat;lon;timestamp;P1;durP1;ratioP1;P2;durP2;ratioP2
17372;SDS011;8803;48.116;11.590;2023-12-20T00:01:30;2.80;;;2.50;;
17372;SDS011;8803;48.116;11.590;2023-12-20T00:03:35;2.33;;;2.13;;
17372;SDS011;8803;48.116;11.590;2023-12-20T00:05:40;3.70;;;2.50;;
17372;SDS011;8803;48.116;11.590;2023-12-20T00:07:44;2.53;;;2.30;;
17372;SDS011;8803;48.116;11.590;2023-12-20T00:09:49;3.40;;;2.20;;
17372;SDS011;8803;48.116;11.590;2023-12-20T00:11:54;3.83;;;2.73;;
17372;SDS011;8803;48.116;11.590;2023-12-20T00:13:58;2.40;;;2.20;;
17372;SDS011;8803;48.116;11.590;2023-12-20T00:16:04;3.37;;;2.40;;
17372;SDS011;8803;48.116;11.590;2023-12-20T00:18:09;2.73;;;2.10;;
17372;SDS011;8803;48.116;11.590;2023-12-20T00:20:14;2.87;;;2.57;;
17372;SDS011;8803;48.116;11.590;2023-12-20T00:22:27;2.37;;;2.13;;
17372;SDS011;8803;48.116;11.590;2023-12-20T00:24:32;2.37;;;2.10;;
17372;SDS011;8803;48.116;11.590;2023-12-20T00:26:48;2.67;;;2.30;;
17372;SDS011;8803;48.116;11.590;2023-12-20T00:28:53;2.50;;;2.30;;
17372;SDS011;8803;48.116;11.590;2023-12-20T00:30:57;2.50;;;2.03;;
17372;SDS011;8803;48.116;11.590;2023-12-20T00:33:10;2.97;;;2.30;;
17372;SDS011;8803;48.116;11.590;2023-12-20T00:35:15;3.03;;;2.30;;
17372;SDS011;8803;48.116;11.590;2023-12-20T00:37:22;2.90;;;2.10;;
17372;SDS011;8803;48.116;11.590;2023-12-20T00:39:26;2.23;;;2.00;;
17372;SDS011;8803;48.116;11.590;2023-12-20T00:41:31;2.73;;;2.03;;
17372;SDS011;8803;48.116;11.590;2023-12-20T00:43:35;2.57;;;2.10;;
17372;SDS011;8803;48.116;11.590;2023-12-20T00:45:40;2.13;;;1.73;;
17372;SDS011;8803;48.116;11.590;2023-12-20T00:47:53;2.10;;;1.90;;
17372;SDS011;8803;48.116;11.590;2023-12-20T00:49:58;2.57;;;1.83;;
17372;SDS011;8803;48.116;11.590;2023-12-20T00:52:02;1.70;;;1.60;;
17372;SDS011;8803;48.116;11.590;2023-12-20T00:54:08;1.70;;;1.40;;
17372;SDS011;8803;48.116;11.590;2023-12-20T00:56:21;2.17;;;1.90;;
17372;SDS011;8803;48.116;11.590;2023-12-20T00:58:25;1.60;;;1.50;;
17372;SDS011;8803;48.116;11.590;2023-12-20T01:00:30;2.20;;;1.80;;
17372;SDS011;8803;48.116;11.590;2023-12-20T01:02:34;1.67;;;1.53;;
17372;SDS011;8803;48.116;11.590;2023-12-20T01:04:39;1.90;;;1.60;;
17372;SDS011;8803;48.116;11.590;2023-12-20T01:06:44;1.90;;;1.60;;
17372;SDS011;8803;48.116;11.590;2023-12-20T01:08:57;1.87;;;1.50;;
17372;SDS011;8803;48.116;11.590;2023-12-20T01:11:04;2.23;;;1.70;;
17372;SDS011;8803;48.116;11.590;2023-12-20T01:13:17;2.83;;;1.80;;
17372;SDS011;8803;48.116;11.590;2023-12-20T01:15:22;1.87;;;1.50;;
17372;SDS011;8803;48.116;11.590;2023-12-20T01:17:27;2.00;;;1.43;;
17372;SDS011;8803;48.116;11.590;2023-12-20T01:19:31;1.73;;;1.53;;
17372;SDS011;8803;48.116;11.590;2023-12-20T01:21:36;1.87;;;1.60;;
17372;SDS011;8803;48.116;11.590;2023-12-20T01:23:41;1.40;;;1.30;;
17372;SDS011;8803;48.116;11.590;2023-12-20T01:25:45;1.90;;;1.70;;
17372;SDS011;8803;48.116;11.590;2023-12-20T01:27:52;1.60;;;1.50;;
17372;SDS011;8803;48.116;11.590;2023-12-20T01:29:56;2.57;;;1.80;;
17372;SDS011;8803;48.116;11.590;2023-12-20T01:32:01;1.43;;;1.33;;
17372;SDS011;8803;48.116;11.590;2023-12-20T01:34:06;2.10;;;1.33;;
17372;SDS011;8803;48.116;11.590;2023-12-20T01:36:19;1.60;;;1.47;;
17372;SDS011;8803;48.116;11.590;2023-12-20T01:38:24;2.07;;;1.70;;
17372;SDS011;8803;48.116;11.590;2023-12-20T01:40:28;1.60;;;1.50;;
17372;SDS011;8803;48.116;11.590;2023-12-20T01:42:41;2.00;;;1.47;;
17372;SDS011;8803;48.116;11.590;2023-12-20T01:44:46;1.20;;;1.10;;
17372;SDS011;8803;48.116;11.590;2023-12-20T01:46:50;1.60;;;1.40;;
17372;SDS011;8803;48.116;11.590;2023-12-20T01:49:04;1.73;;;1.50;;
17372;SDS011;8803;48.116;11.590;2023-12-20T01:51:09;1.50;;;1.30;;
17372;SDS011;8803;48.116;11.590;2023-12-20T01:53:24;1.90;;;1.40;;
17372;SDS011;8803;48.116;11.590;2023-12-20T01:55:31;1.67;;;1.40;;
17372;SDS011;8803;48.116;11.590;2023-12-20T01:57:38;1.90;;;1.50;;
17372;SDS011;8803;48.116;11.590;2023-12-20T01:59:43;1.60;;;1.20;;
17372;SDS011;8803;48.116;11.590;2023-12-20T02:01:48;2.20;;;1.20;;
17372;SDS011;8803;48.116;11.590;2023-12-20T02:03:54;1.30;;;1.20;;
17372;SDS011;8803;48.116;11.590;2023-12-20T02:05:59;1.60;;;1.20;;
17372;SDS011;8803;48.116;11.590;2023-12-20T02:08:04;1.50;;;1.40;;
17372;SDS011;8803;48.116;11.590;2023-12-20T02:10:09;1.30;;;1.10;;
17372;SDS011;8803;48.116;11.590;2023-12-20T02:12:14;1.33;;;1.20;;
17372;SDS011;8803;48.116;11.590;2023-12-20T02:14:19;1.50;;;1.20;;
17372;SDS011;8803;48.116;11.590;2023-12-20T02:16:23;1.13;;;1.03;;
17372;SDS011;8803;48.116;11.590;2023-12-20T02:18:28;2.23;;;1.10;;
17372;SDS011;8803;48.116;11.590;2023-12-20T02:20:34;1.30;;;1.20;;
17372;SDS011;8803;48.116;11.590;2023-12-20T02:22:39;1.10;;;1.00;;
17372;SDS011;8803;48.116;11.590;2023-12-20T02:24:44;1.17;;;1.07;;
17372;SDS011;8803;48.116;11.590;2023-12-20T02:26:48;1.40;;;1.07;;
17372;SDS011;8803;48.116;11.590;2023-12-20T02:28:53;0.80;;;0.80;;
17372;SDS011;8803;48.116;11.590;2023-12-20T02:30:59;1.20;;;0.90;;
17372;SDS011;8803;48.116;11.590;2023-12-20T02:33:05;1.07;;;0.97;;
17372;SDS011;8803;48.116;11.590;2023-12-20T02:35:13;0.90;;;0.90;;
17372;SDS011;8803;48.116;11.590;2023-12-20T02:37:26;1.30;;;1.00;;
17372;SDS011;8803;48.116;11.590;2023-12-20T02:39:30;0.90;;;0.80;;
17372;SDS011;8803;48.116;11.590;2023-12-20T02:41:36;1.00;;;0.90;;
17372;SDS011;8803;48.116;11.590;2023-12-20T02:43:42;1.00;;;0.90;;
17372;SDS011;8803;48.116;11.590;2023-12-20T02:45:47;1.33;;;0.90;;
17372;SDS011;8803;48.116;11.590;2023-12-20T02:47:52;1.10;;;0.90;;
17372;SDS011;8803;48.116;11.590;2023-12-20T02:49:56;0.80;;;0.80;;
17372;SDS011;8803;48.116;11.590;2023-12-20T02:52:10;0.90;;;0.80;;
17372;SDS011;8803;48.116;11.590;2023-12-20T02:54:15;0.70;;;0.70;;
17372;SDS011;8803;48.116;11.590;2023-12-20T02:56:19;2.10;;;0.70;;
17372;SDS011;8803;48.116;11.590;2023-12-20T02:58:24;0.80;;;0.70;;
17372;SDS011;8803;48.116;11.590;2023-12-20T03:00:29;0.77;;;0.70;;
17372;SDS011;8803;48.116;11.590;2023-12-20T03:02:33;1.07;;;0.70;;
17372;SDS011;8803;48.116;11.590;2023-12-20T03:04:40;0.80;;;0.70;;
17372;SDS011;8803;48.116;11.590;2023-12-20T03:06:44;0.73;;;0.70;;
17372;SDS011;8803;48.116;11.590;2023-12-20T03:08:49;0.77;;;0.70;;
17372;SDS011;8803;48.116;11.590;2023-12-20T03:10:53;1.10;;;1.00;;
17372;SDS011;8803;48.116;11.590;2023-12-20T03:12:58;1.03;;;0.90;;
17372;SDS011;8803;48.116;11.590;2023-12-20T03:15:11;0.87;;;0.80;;
17372;SDS011;8803;48.116;11.590;2023-12-20T03:17:16;1.00;;;0.90;;
17372;SDS011;8803;48.116;11.590;2023-12-20T03:19:22;1.43;;;1.03;;
17372;SDS011;8803;48.116;11.590;2023-12-20T03:21:27;0.63;;;0.63;;
17372;SDS011;8803;48.116;11.590;2023-12-20T03:23:41;1.00;;;0.90;;
17372;SDS011;8803;48.116;11.590;2023-12-20T03:25:46;0.80;;;0.70;;
17372;SDS011;8803;48.116;11.590;2023-12-20T03:27:59;0.60;;;0.60;;
17372;SDS011;8803;48.116;11.590;2023-12-20T03:30:08;0.80;;;0.80;;
17372;SDS011;8803;48.116;11.590;2023-12-20T03:32:14;1.07;;;0.90;;
17372;SDS011;8803;48.116;11.590;2023-12-20T03:34:19;1.00;;;0.90;;
17372;SDS011;8803;48.116;11.590;2023-12-20T03:36:23;0.77;;;0.77;;
17372;SDS011;8803;48.116;11.590;2023-12-20T03:38:28;0.70;;;0.63;;
17372;SDS011;8803;48.116;11.590;2023-12-20T03:40:32;1.00;;;0.90;;
17372;SDS011;8803;48.116;11.590;2023-12-20T03:42:37;1.43;;;0.70;;
17372;SDS011;8803;48.116;11.590;2023-12-20T03:44:41;0.70;;;0.70;;
17372;SDS011;8803;48.116;11.590;2023-12-20T03:46:46;0.90;;;0.80;;
17372;SDS011;8803;48.116;11.590;2023-12-20T03:48:51;1.00;;;0.80;;
17372;SDS011;8803;48.116;11.590;2023-12-20T03:51:05;1.10;;;0.70;;
17372;SDS011;8803;48.116;11.590;2023-12-20T03:53:10;0.93;;;0.70;;
17372;SDS011;8803;48.116;11.590;2023-12-20T03:55:14;0.60;;;0.60;;
17372;SDS011;8803;48.116;11.590;2023-12-20T03:57:19;1.90;;;0.70;;
17372;SDS011;8803;48.116;11.590;2023-12-20T03:59:24;0.87;;;0.70;;
17372;SDS011;8803;48.116;11.590;2023-12-20T04:01:28;1.40;;;0.90;;
17372;SDS011;8803;48.116;11.590;2023-12-20T04:03:33;0.60;;;0.60;;
17372;SDS011;8803;48.116;11.590;2023-12-20T04:05:46;1.00;;;0.80;;
17372;SDS011;8803;48.116;11.590;2023-12-20T04:07:51;0.53;;;0.50;;
17372;SDS011;8803;48.116;11.590;2023-12-20T04:09:55;1.40;;;0.50;;
17372;SDS011;8803;48.116;11.590;2023-12-20T04:12:09;1.00;;;0.70;;
17372;SDS011;8803;48.116;11.590;2023-12-20T04:14:13;0.70;;;0.60;;
17372;SDS011;8803;48.116;11.590;2023-12-20T04:16:18;0.47;;;0.47;;
17372;SDS011;8803;48.116;11.590;2023-12-20T04:18:22;0.73;;;0.70;;
17372;SDS011;8803;48.116;11.590;2023-12-20T04:20:27;0.60;;;0.60;;
17372;SDS011;8803;48.116;11.590;2023-12-20T04:22:31;0.83;;;0.67;;
17372;SDS011;8803;48.116;11.590;2023-12-20T04:24:36;0.80;;;0.70;;
17372;SDS011;8803;48.116;11.590;2023-12-20T04:26:41;0.90;;;0.70;;
17372;SDS011;8803;48.116;11.590;2023-12-20T04:28:45;0.87;;;0.73;;
17372;SDS011;8803;48.116;11.590;2023-12-20T04:30:50;0.60;;;0.60;;
17372;SDS011;8803;48.116;11.590;2023-12-20T04:32:54;0.70;;;0.70;;
17372;SDS011;8803;48.116;11.590;2023-12-20T04:35:08;1.83;;;0.90;;
17372;SDS011;8803;48.116;11.590;2023-12-20T04:37:12;0.80;;;0.80;;
17372;SDS011;8803;48.116;11.590;2023-12-20T04:39:17;0.67;;;0.67;;
17372;SDS011;8803;48.116;11.590;2023-12-20T04:41:21;0.53;;;0.53;;
17372;SDS011;8803;48.116;11.590;2023-12-20T04:43:26;1.03;;;0.70;;
17372;SDS011;8803;48.116;11.590;2023-12-20T04:45:31;0.60;;;0.60;;
17372;SDS011;8803;48.116;11.590;2023-12-20T04:47:36;1.00;;;0.90;;
17372;SDS011;8803;48.116;11.590;2023-12-20T04:49:49;0.80;;;0.70;;
17372;SDS011;8803;48.116;11.590;2023-12-20T04:51:53;1.03;;;0.80;;
17372;SDS011;8803;48.116;11.590;2023-12-20T04:53:58;0.60;;;0.60;;
17372;SDS011;8803;48.116;11.590;2023-12-20T04:56:06;0.87;;;0.70;;
17372;SDS011;8803;48.116;11.590;2023-12-20T04:58:10;1.37;;;0.90;;
17372;SDS011;8803;48.116;11.590;2023-12-20T05:00:16;1.17;;;0.80;;
17372;SDS011;8803;48.116;11.590;2023-12-20T05:02:32;0.90;;;0.80;;
17372;SDS011;8803;48.116;11.590;2023-12-20T05:04:39;1.17;;;0.97;;
17372;SDS011;8803;48.116;11.590;2023-12-20T05:06:43;1.20;;;1.00;;
17372;SDS011;8803;48.116;11.590;2023-12-20T05:08:48;1.20;;;1.10;;
17372;SDS011;8803;48.116;11.590;2023-12-20T05:10:53;2.33;;;1.50;;
17372;SDS011;8803;48.116;11.590;2023-12-20T05:13:00;1.50;;;1.20;;
17372;SDS011;8803;48.116;11.590;2023-12-20T05:15:13;1.30;;;1.20;;
17372;SDS011;8803;48.116;11.590;2023-12-20T05:17:18;1.43;;;1.20;;
17372;SDS011;8803;48.116;11.590;2023-12-20T05:19:22;1.20;;;1.10;;
17372;SDS011;8803;48.116;11.590;2023-12-20T05:21:35;1.40;;;1.27;;
17372;SDS011;8803;48.116;11.590;2023-12-20T05:23:40;1.43;;;1.27;;
17372;SDS011;8803;48.116;11.590;2023-12-20T05:25:53;1.70;;;1.30;;
17372;SDS011;8803;48.116;11.590;2023-12-20T05:27:58;1.33;;;1.13;;
17372;SDS011;8803;48.116;11.590;2023-12-20T05:30:03;1.70;;;1.20;;
17372;SDS011;8803;48.116;11.590;2023-12-20T05:32:10;1.50;;;1.10;;
17372;SDS011;8803;48.116;11.590;2023-12-20T05:34:16;1.70;;;1.43;;
17372;SDS011;8803;48.116;11.590;2023-12-20T05:36:22;1.20;;;1.10;;
17372;SDS011;8803;48.116;11.590;2023-12-20T05:38:27;1.27;;;1.17;;
17372;SDS011;8803;48.116;11.590;2023-12-20T05:40:32;1.57;;;1.30;;
17372;SDS011;8803;48.116;11.590;2023-12-20T05:42:37;1.27;;;0.90;;
17372;SDS011;8803;48.116;11.590;2023-12-20T05:44:41;1.67;;;1.43;;
17372;SDS011;8803;48.116;11.590;2023-12-20T05:46:46;2.23;;;1.60;;
17372;SDS011;8803;48.116;11.590;2023-12-20T05:48:50;2.70;;;1.20;;
17372;SDS011;8803;48.116;11.590;2023-12-20T05:51:04;2.57;;;1.40;;
17372;SDS011;8803;48.116;11.590;2023-12-20T05:53:09;1.40;;;0.97;;
17372;SDS011;8803;48.116;11.590;2023-12-20T05:55:14;1.40;;;1.30;;
17372;SDS011;8803;48.116;11.590;2023-12-20T05:57:18;1.43;;;1.33;;
17372;SDS011;8803;48.116;11.590;2023-12-20T05:59:24;1.20;;;1.10;;
17372;SDS011;8803;48.116;11.590;2023-12-20T06:01:29;1.60;;;1.27;;
17372;SDS011;8803;48.116;11.590;2023-12-20T06:03:33;2.30;;;1.10;;
17372;SDS011;8803;48.116;11.590;2023-12-20T06:05:38;2.50;;;1.33;;
17372;SDS011;8803;48.116;11.590;2023-12-20T06:07:43;1.23;;;1.10;;
17372;SDS011;8803;48.116;11.590;2023-12-20T06:09:52;1.40;;;1.30;;
17372;SDS011;8803;48.116;11.590;2023-12-20T06:12:06;1.83;;;1.30;;
17372;SDS011;8803;48.116;11.590;2023-12-20T06:14:13;1.40;;;1.30;;
17372;SDS011;8803;48.116;11.590;2023-12-20T06:16:17;1.37;;;1.23;;
17372;SDS011;8803;48.116;11.590;2023-12-20T06:18:23;1.30;;;1.00;;
17372;SDS011;8803;48.116;11.590;2023-12-20T06:20:36;1.37;;;1.23;;
17372;SDS011;8803;48.116;11.590;2023-12-20T06:22:41;1.47;;;1.27;;
17372;SDS011;8803;48.116;11.590;2023-12-20T06:24:46;3.50;;;1.70;;
17372;SDS011;8803;48.116;11.590;2023-12-20T06:26:50;1.57;;;1.27;;
17372;SDS011;8803;48.116;11.590;2023-12-20T06:28:55;2.10;;;1.37;;
17372;SDS011;8803;48.116;11.590;2023-12-20T06:31:08;2.13;;;1.40;;
17372;SDS011;8803;48.116;11.590;2023-12-20T06:33:13;1.70;;;1.30;;
17372;SDS011;8803;48.116;11.590;2023-12-20T06:35:17;1.93;;;1.40;;
17372;SDS011;8803;48.116;11.590;2023-12-20T06:37:22;1.30;;;1.17;;
17372;SDS011;8803;48.116;11.590;2023-12-20T06:39:26;1.30;;;1.20;;
17372;SDS011;8803;48.116;11.590;2023-12-20T06:41:33;2.17;;;1.47;;
17372;SDS011;8803;48.116;11.590;2023-12-20T06:43:38;2.03;;;1.37;;
17372;SDS011;8803;48.116;11.590;2023-12-20T06:45:51;3.37;;;1.37;;
17372;SDS011;8803;48.116;11.590;2023-12-20T06:47:56;1.30;;;1.20;;
17372;SDS011;8803;48.116;11.590;2023-12-20T06:50:01;1.57;;;1.20;;
17372;SDS011;8803;48.116;11.590;2023-12-20T06:52:14;1.33;;;1.23;;
17372;SDS011;8803;48.116;11.590;2023-12-20T06:54:20;1.87;;;1.20;;
17372;SDS011;8803;48.116;11.590;2023-12-20T06:58:36;1.50;;;1.23;;
17372;SDS011;8803;48.116;11.590;2023-12-20T07:00:41;1.00;;;0.80;;
17372;SDS011;8803;48.116;11.590;2023-12-20T07:02:54;1.50;;;1.10;;
17372;SDS011;8803;48.116;11.590;2023-12-20T07:04:58;1.50;;;1.10;;
17372;SDS011;8803;48.116;11.590;2023-12-20T07:07:03;3.20;;;1.10;;
17372;SDS011;8803;48.116;11.590;2023-12-20T07:09:09;2.37;;;1.40;;
17372;SDS011;8803;48.116;11.590;2023-12-20T07:11:14;1.33;;;1.20;;
17372;SDS011;8803;48.116;11.590;2023-12-20T07:13:19;1.63;;;0.90;;
17372;SDS011;8803;48.116;11.590;2023-12-20T07:15:24;2.23;;;1.10;;
17372;SDS011;8803;48.116;11.590;2023-12-20T07:17:31;1.00;;;0.80;;
17372;SDS011;8803;48.116;11.590;2023-12-20T07:19:36;1.43;;;0.90;;
17372;SDS011;8803;48.116;11.590;2023-12-20T07:21:40;1.27;;;1.07;;
17372;SDS011;8803;48.116;11.590;2023-12-20T07:23:46;1.00;;;0.90;;
17372;SDS011;8803;48.116;11.590;2023-12-20T07:25:59;1.43;;;0.90;;
17372;SDS011;8803;48.116;11.590;2023-12-20T07:28:06;0.93;;;0.80;;
17372;SDS011;8803;48.116;11.590;2023-12-20T07:30:14;1.30;;;0.57;;
17372;SDS011;8803;48.116;11.590;2023-12-20T07:32:19;1.33;;;0.80;;
17372;SDS011;8803;48.116;11.590;2023-12-20T07:34:24;0.80;;;0.80;;
17372;SDS011;8803;48.116;11.590;2023-12-20T07:36:28;0.60;;;0.60;;
17372;SDS011;8803;48.116;11.590;2023-12-20T07:38:33;0.70;;;0.70;;
17372;SDS011;8803;48.116;11.590;2023-12-20T07:40:39;1.10;;;0.87;;
17372;SDS011;8803;48.116;11.590;2023-12-20T07:42:44;0.60;;;0.50;;
17372;SDS011;8803;48.116;11.590;2023-12-20T07:44:48;0.53;;;0.53;;
17372;SDS011;8803;48.116;11.590;2023-12-20T07:46:53;0.73;;;0.60;;
17372;SDS011;8803;48.116;11.590;2023-12-20T07:48:59;0.60;;;0.60;;
17372;SDS011;8803;48.116;11.590;2023-12-20T07:51:04;1.13;;;0.87;;
17372;SDS011;8803;48.116;11.590;2023-12-20T07:53:11;0.90;;;0.87;;
17372;SDS011;8803;48.116;11.590;2023-12-20T07:55:18;0.70;;;0.70;;
17372;SDS011;8803;48.116;11.590;2023-12-20T07:57:24;0.60;;;0.60;;
17372;SDS011;8803;48.116;11.590;2023-12-20T07:59:30;1.40;;;0.70;;
17372;SDS011;8803;48.116;11.590;2023-12-20T08:01:43;0.97;;;0.77;;
17372;SDS011;8803;48.116;11.590;2023-12-20T08:03:48;1.23;;;0.77;;
17372;SDS011;8803;48.116;11.590;2023-12-20T08:05:55;0.87;;;0.77;;
17372;SDS011;8803;48.116;11.590;2023-12-20T08:08:01;1.07;;;0.80;;
17372;SDS011;8803;48.116;11.590;2023-12-20T08:10:08;0.87;;;0.80;;
17372;SDS011;8803;48.116;11.590;2023-12-20T08:12:14;2.30;;;1.00;;
17372;SDS011;8803;48.116;11.590;2023-12-20T08:14:19;1.50;;;1.00;;
17372;SDS011;8803;48.116;11.590;2023-12-20T08:16:32;0.90;;;0.80;;
17372;SDS011;8803;48.116;11.590;2023-12-20T08:18:36;1.20;;;0.90;;
17372;SDS011;8803;48.116;11.590;2023-12-20T08:20:50;0.67;;;0.57;;
17372;SDS011;8803;48.116;11.590;2023-12-20T08:22:55;2.00;;;1.20;;
17372;SDS011;8803;48.116;11.590;2023-12-20T08:25:00;1.40;;;1.00;;
17372;SDS011;8803;48.116;11.590;2023-12-20T08:27:13;1.00;;;0.90;;
17372;SDS011;8803;48.116;11.590;2023-12-20T08:29:18;1.00;;;0.80;;
17372;SDS011;8803;48.116;11.590;2023-12-20T08:31:23;1.00;;;0.90;;
17372;SDS011;8803;48.116;11.590;2023-12-20T08:33:27;1.20;;;0.80;;
17372;SDS011;8803;48.116;11.590;2023-12-20T08:35:32;0.77;;;0.70;;
17372;SDS011;8803;48.116;11.590;2023-12-20T08:37:39;1.77;;;0.90;;
17372;SDS011;8803;48.116;11.590;2023-12-20T08:39:43;1.33;;;0.73;;
17372;SDS011;8803;48.116;11.590;2023-12-20T08:41:49;0.60;;;0.60;;
17372;SDS011;8803;48.116;11.590;2023-12-20T08:44:02;0.87;;;0.80;;
17372;SDS011;8803;48.116;11.590;2023-12-20T08:46:07;2.37;;;2.07;;
17372;SDS011;8803;48.116;11.590;2023-12-20T08:48:13;1.83;;;1.53;;
17372;SDS011;8803;48.116;11.590;2023-12-20T08:50:18;1.50;;;1.10;;
17372;SDS011;8803;48.116;11.590;2023-12-20T08:52:23;0.90;;;0.90;;
17372;SDS011;8803;48.116;11.590;2023-12-20T08:54:28;1.00;;;0.90;;
17372;SDS011;8803;48.116;11.590;2023-12-20T08:56:33;2.03;;;1.17;;
17372;SDS011;8803;48.116;11.590;2023-12-20T08:58:37;1.97;;;1.20;;
17372;SDS011;8803;48.116;11.590;2023-12-20T09:00:44;1.50;;;1.40;;
17372;SDS011;8803;48.116;11.590;2023-12-20T09:02:49;1.10;;;1.00;;
17372;SDS011;8803;48.116;11.590;2023-12-20T09:04:53;0.80;;;0.80;;
17372;SDS011;8803;48.116;11.590;2023-12-20T09:07:00;0.77;;;0.77;;
17372;SDS011;8803;48.116;11.590;2023-12-20T09:09:04;0.60;;;0.60;;
17372;SDS011;8803;48.116;11.590;2023-12-20T09:11:12;1.03;;;0.43;;
17372;SDS011;8803;48.116;11.590;2023-12-20T09:13:16;0.90;;;0.80;;
17372;SDS011;8803;48.116;11.590;2023-12-20T09:15:30;0.70;;;0.50;;
17372;SDS011;8803;48.116;11.590;2023-12-20T09:17:35;1.50;;;0.70;;
17372;SDS011;8803;48.116;11.590;2023-12-20T09:19:40;0.90;;;0.70;;
17372;SDS011;8803;48.116;11.590;2023-12-20T09:21:45;0.80;;;0.80;;
17372;SDS011;8803;48.116;11.590;2023-12-20T09:23:49;0.73;;;0.67;;
17372;SDS011;8803;48.116;11.590;2023-12-20T09:25:54;1.67;;;1.10;;
17372;SDS011;8803;48.116;11.590;2023-12-20T09:27:58;2.83;;;2.33;;
17372;SDS011;8803;48.116;11.590;2023-12-20T09:30:06;1.80;;;1.27;;
17372;SDS011;8803;48.116;11.590;2023-12-20T09:32:19;2.33;;;1.50;;
17372;SDS011;8803;48.116;11.590;2023-12-20T09:34:24;0.63;;;0.63;;
17372;SDS011;8803;48.116;11.590;2023-12-20T09:36:29;0.80;;;0.60;;
17372;SDS011;8803;48.116;11.590;2023-12-20T09:38:42;0.67;;;0.63;;
17372;SDS011;8803;48.116;11.590;2023-12-20T09:40:50;0.90;;;0.60;;
17372;SDS011;8803;48.116;11.590;2023-12-20T09:42:58;1.10;;;0.67;;
17372;SDS011;8803;48.116;11.590;2023-12-20T09:45:06;0.70;;;0.60;;
17372;SDS011;8803;48.116;11.590;2023-12-20T09:47:13;0.50;;;0.50;;
17372;SDS011;8803;48.116;11.590;2023-12-20T09:49:21;1.27;;;0.63;;
17372;SDS011;8803;48.116;11.590;2023-12-20T09:51:28;0.70;;;0.60;;
17372;SDS011;8803;48.116;11.590;2023-12-20T09:53:34;0.60;;;0.60;;
17372;SDS011;8803;48.116;11.590;2023-12-20T09:55:42;0.60;;;0.53;;
17372;SDS011;8803;48.116;11.590;2023-12-20T09:57:48;1.47;;;0.70;;
17372;SDS011;8803;48.116;11.590;2023-12-20T09:59:54;0.60;;;0.60;;
17372;SDS011;8803;48.116;11.590;2023-12-20T10:01:58;0.80;;;0.80;;
17372;SDS011;8803;48.116;11.590;2023-12-20T10:04:08;4.00;;;2.70;;
17372;SDS011;8803;48.116;11.590;2023-12-20T10:06:22;2.77;;;1.93;;
17372;SDS011;8803;48.116;11.590;2023-12-20T10:08:26;1.83;;;1.73;;
17372;SDS011;8803;48.116;11.590;2023-12-20T10:10:33;1.30;;;1.17;;
17372;SDS011;8803;48.116;11.590;2023-12-20T10:12:38;1.40;;;0.90;;
17372;SDS011;8803;48.116;11.590;2023-12-20T10:14:43;1.20;;;0.80;;
17372;SDS011;8803;48.116;11.590;2023-12-20T10:17:01;0.70;;;0.70;;
17372;SDS011;8803;48.116;11.590;2023-12-20T10:19:06;0.77;;;0.70;;
17372;SDS011;8803;48.116;11.590;2023-12-20T10:21:19;1.43;;;0.60;;
17372;SDS011;8803;48.116;11.590;2023-12-20T10:23:26;1.43;;;1.00;;
17372;SDS011;8803;48.116;11.590;2023-12-20T10:25:39;0.90;;;0.80;;
17372;SDS011;8803;48.116;11.590;2023-12-20T10:27:45;0.73;;;0.70;;
17372;SDS011;8803;48.116;11.590;2023-12-20T10:29:51;1.37;;;0.80;;
17372;SDS011;8803;48.116;11.590;2023-12-20T10:31:55;0.80;;;0.80;;
17372;SDS011;8803;48.116;11.590;2023-12-20T10:34:00;1.20;;;0.97;;
17372;SDS011;8803;48.116;11.590;2023-12-20T10:36:13;0.80;;;0.80;;
17372;SDS011;8803;48.116;11.590;2023-12-20T10:38:26;0.70;;;0.70;;
17372;SDS011;8803;48.116;11.590;2023-12-20T10:40:31;1.97;;;0.77;;
17372;SDS011;8803;48.116;11.590;2023-12-20T10:42:39;1.43;;;0.73;;
17372;SDS011;8803;48.116;11.590;2023-12-20T10:44:53;1.60;;;0.97;;
17372;SDS011;8803;48.116;11.590;2023-12-20T10:46:58;1.00;;;0.90;;
17372;SDS011;8803;48.116;11.590;2023-12-20T10:49:05;1.70;;;0.80;;
17372;SDS011;8803;48.116;11.590;2023-12-20T10:51:12;1.60;;;0.80;;
17372;SDS011;8803;48.116;11.590;2023-12-20T10:53:21;0.67;;;0.67;;
17372;SDS011;8803;48.116;11.590;2023-12-20T10:55:28;0.80;;;0.70;;
17372;SDS011;8803;48.116;11.590;2023-12-20T10:57:34;1.17;;;0.70;;
17372;SDS011;8803;48.116;11.590;2023-12-20T10:59:42;2.80;;;0.90;;
17372;SDS011;8803;48.116;11.590;2023-12-20T11:01:50;1.10;;;0.90;;
17372;SDS011;8803;48.116;11.590;2023-12-20T11:03:57;1.70;;;1.10;;
17372;SDS011;8803;48.116;11.590;2023-12-20T11:06:08;1.30;;;1.00;;
17372;SDS011;8803;48.116;11.590;2023-12-20T11:08:14;1.23;;;0.93;;
17372;SDS011;8803;48.116;11.590;2023-12-20T11:10:25;1.00;;;0.90;;
17372;SDS011;8803;48.116;11.590;2023-12-20T11:12:39;1.03;;;0.90;;
17372;SDS011;8803;48.116;11.590;2023-12-20T11:14:46;1.23;;;0.90;;
17372;SDS011;8803;48.116;11.590;2023-12-20T11:17:05;1.10;;;0.83;;
17372;SDS011;8803;48.116;11.590;2023-12-20T11:19:13;0.70;;;0.70;;
17372;SDS011;8803;48.116;11.590;2023-12-20T11:21:17;1.20;;;0.90;;
17372;SDS011;8803;48.116;11.590;2023-12-20T11:23:30;0.70;;;0.70;;
17372;SDS011;8803;48.116;11.590;2023-12-20T11:25:50;1.30;;;1.20;;
17372;SDS011;8803;48.116;11.590;2023-12-20T11:28:08;1.77;;;1.27;;
17372;SDS011;8803;48.116;11.590;2023-12-20T11:30:15;1.23;;;1.03;;
17372;SDS011;8803;48.116;11.590;2023-12-20T11:32:38;1.30;;;1.10;;
17372;SDS011;8803;48.116;11.590;2023-12-20T11:34:46;1.00;;;0.83;;
17372;SDS011;8803;48.116;11.590;2023-12-20T11:36:55;1.10;;;1.00;;
17372;SDS011;8803;48.116;11.590;2023-12-20T11:39:02;1.23;;;0.90;;
17372;SDS011;8803;48.116;11.590;2023-12-20T11:41:10;1.27;;;1.07;;
17372;SDS011;8803;48.116;11.590;2023-12-20T11:43:29;1.60;;;1.30;;
17372;SDS011;8803;48.116;11.590;2023-12-20T11:45:35;1.87;;;1.50;;
17372;SDS011;8803;48.116;11.590;2023-12-20T11:47:40;1.10;;;1.00;;
17372;SDS011;8803;48.116;11.590;2023-12-20T11:49:48;1.43;;;1.10;;
17372;SDS011;8803;48.116;11.590;2023-12-20T11:51:54;2.00;;;1.07;;
17372;SDS011;8803;48.116;11.590;2023-12-20T11:53:59;1.00;;;0.90;;
17372;SDS011;8803;48.116;11.590;2023-12-20T11:56:04;3.43;;;1.13;;
17372;SDS011;8803;48.116;11.590;2023-12-20T11:58:11;1.23;;;1.00;;
17372;SDS011;8803;48.116;11.590;2023-12-20T12:00:18;2.37;;;1.30;;
17372;SDS011;8803;48.116;11.590;2023-12-20T12:02:23;3.30;;;1.27;;
17372;SDS011;8803;48.116;11.590;2023-12-20T12:04:27;1.80;;;1.33;;
17372;SDS011;8803;48.116;11.590;2023-12-20T12:06:32;1.33;;;1.00;;
17372;SDS011;8803;48.116;11.590;2023-12-20T12:08:37;2.40;;;1.10;;
17372;SDS011;8803;48.116;11.590;2023-12-20T12:10:42;1.63;;;1.30;;
17372;SDS011;8803;48.116;11.590;2023-12-20T12:12:47;1.23;;;1.10;;
17372;SDS011;8803;48.116;11.590;2023-12-20T12:14:54;1.63;;;1.13;;
17372;SDS011;8803;48.116;11.590;2023-12-20T12:17:00;1.50;;;1.20;;
17372;SDS011;8803;48.116;11.590;2023-12-20T12:19:20;1.73;;;1.23;;
17372;SDS011;8803;48.116;11.590;2023-12-20T12:21:27;1.03;;;0.90;;
17372;SDS011;8803;48.116;11.590;2023-12-20T12:23:31;1.50;;;1.03;;
17372;SDS011;8803;48.116;11.590;2023-12-20T12:25:38;0.80;;;0.80;;
17372;SDS011;8803;48.116;11.590;2023-12-20T12:27:43;1.43;;;1.10;;
17372;SDS011;8803;48.116;11.590;2023-12-20T12:30:00;0.93;;;0.80;;
17372;SDS011;8803;48.116;11.590;2023-12-20T12:32:08;1.47;;;1.03;;
17372;SDS011;8803;48.116;11.590;2023-12-20T12:34:13;1.37;;;1.10;;
17372;SDS011;8803;48.116;11.590;2023-12-20T12:36:17;1.27;;;0.83;;
17372;SDS011;8803;48.116;11.590;2023-12-20T12:38:31;1.30;;;1.20;;
17372;SDS011;8803;48.116;11.590;2023-12-20T12:40:37;1.00;;;0.90;;
17372;SDS011;8803;48.116;11.590;2023-12-20T12:42:42;1.13;;;0.87;;
17372;SDS011;8803;48.116;11.590;2023-12-20T12:44:48;1.13;;;1.03;;
17372;SDS011;8803;48.116;11.590;2023-12-20T12:47:01;1.53;;;1.10;;